sensor_id;sensor_type;location;lat;lon;timestamp;P1;durP1;ratioP1;P2;durP2;ratioP2
52468;SDS011;38381;53.688;10.776;2022-08-19T00:01:37;14.63;;;10.40;;
52468;SDS011;38381;53.688;10.776;2022-08-19T00:06:39;13.00;;;11.70;;
52468;SDS011;38381;53.688;10.776;2022-08-19T00:11:41;14.50;;;10.90;;
52468;SDS011;38381;53.688;10.776;2022-08-19T00:16:44;15.00;;;11.05;;
52468;SDS011;38381;53.688;10.776;2022-08-19T00:21:47;18.92;;;12.13;;
52468;SDS011;38381;53.688;10.776;2022-08-19T00:26:47;14.03;;;12.53;;
52468;SDS011;38381;53.688;10.776;2022-08-19T00:31:48;25.52;;;14.68;;
52468;SDS011;38381;53.688;10.776;2022-08-19T00:36:52;19.13;;;15.38;;
52468;SDS011;38381;53.688;10.776;2022-08-19T00:41:53;18.20;;;15.43;;
52468;SDS011;38381;53.688;10.776;2022-08-19T00:46:55;19.38;;;16.88;;
52468;SDS011;38381;53.688;10.776;2022-08-19T00:52:06;20.60;;;18.35;;
52468;SDS011;38381;53.688;10.776;2022-08-19T00:57:10;20.48;;;17.30;;
52468;SDS011;38381;53.688;10.776;2022-08-19T01:02:15;20.95;;;18.10;;
52468;SDS011;38381;53.688;10.776;2022-08-19T01:07:16;23.27;;;18.67;;
52468;SDS011;38381;53.688;10.776;2022-08-19T01:12:18;26.60;;;17.83;;
52468;SDS011;38381;53.688;10.776;2022-08-19T01:17:18;19.08;;;17.00;;
52468;SDS011;38381;53.688;10.776;2022-08-19T01:27:22;26.90;;;18.70;;
52468;SDS011;38381;53.688;10.776;2022-08-19T01:32:22;22.20;;;17.87;;
52468;SDS011;38381;53.688;10.776;2022-08-19T01:37:23;24.95;;;17.08;;
52468;SDS011;38381;53.688;10.776;2022-08-19T01:42:24;23.73;;;20.40;;
52468;SDS011;38381;53.688;10.776;2022-08-19T01:47:24;21.85;;;17.98;;
52468;SDS011;38381;53.688;10.776;2022-08-19T01:52:24;23.45;;;18.02;;
52468;SDS011;38381;53.688;10.776;2022-08-19T01:57:25;22.48;;;16.98;;
52468;SDS011;38381;53.688;10.776;2022-08-19T02:02:25;19.17;;;17.17;;
52468;SDS011;38381;53.688;10.776;2022-08-19T02:07:26;18.65;;;15.75;;
52468;SDS011;38381;53.688;10.776;2022-08-19T02:12:28;21.15;;;16.85;;
52468;SDS011;38381;53.688;10.776;2022-08-19T02:17:28;24.17;;;17.77;;
52468;SDS011;38381;53.688;10.776;2022-08-19T02:22:29;29.25;;;19.50;;
52468;SDS011;38381;53.688;10.776;2022-08-19T02:27:30;28.23;;;19.83;;
52468;SDS011;38381;53.688;10.776;2022-08-19T02:32:30;25.45;;;20.80;;
52468;SDS011;38381;53.688;10.776;2022-08-19T02:37:31;25.00;;;17.77;;
52468;SDS011;38381;53.688;10.776;2022-08-19T02:42:49;22.60;;;17.85;;
52468;SDS011;38381;53.688;10.776;2022-08-19T02:47:50;22.45;;;19.52;;
52468;SDS011;38381;53.688;10.776;2022-08-19T02:52:50;24.88;;;18.65;;
52468;SDS011;38381;53.688;10.776;2022-08-19T02:57:51;24.83;;;19.50;;
52468;SDS011;38381;53.688;10.776;2022-08-19T03:02:51;25.63;;;18.97;;
52468;SDS011;38381;53.688;10.776;2022-08-19T03:07:52;25.50;;;18.90;;
52468;SDS011;38381;53.688;10.776;2022-08-19T03:12:52;22.73;;;17.40;;
52468;SDS011;38381;53.688;10.776;2022-08-19T03:17:53;21.15;;;18.75;;
52468;SDS011;38381;53.688;10.776;2022-08-19T03:22:54;23.02;;;18.30;;
52468;SDS011;38381;53.688;10.776;2022-08-19T03:27:54;20.55;;;16.88;;
52468;SDS011;38381;53.688;10.776;2022-08-19T03:32:54;19.20;;;15.32;;
52468;SDS011;38381;53.688;10.776;2022-08-19T03:37:55;23.50;;;18.95;;
52468;SDS011;38381;53.688;10.776;2022-08-19T03:42:56;26.40;;;18.10;;
52468;SDS011;38381;53.688;10.776;2022-08-19T03:47:56;24.55;;;18.10;;
52468;SDS011;38381;53.688;10.776;2022-08-19T03:52:57;25.27;;;19.15;;
52468;SDS011;38381;53.688;10.776;2022-08-19T03:57:57;22.98;;;17.40;;
52468;SDS011;38381;53.688;10.776;2022-08-19T04:02:58;20.60;;;16.92;;
52468;SDS011;38381;53.688;10.776;2022-08-19T04:07:58;25.93;;;18.10;;
52468;SDS011;38381;53.688;10.776;2022-08-19T04:12:58;25.67;;;18.08;;
52468;SDS011;38381;53.688;10.776;2022-08-19T04:17:59;30.33;;;18.17;;
52468;SDS011;38381;53.688;10.776;2022-08-19T04:22:59;21.08;;;18.35;;
52468;SDS011;38381;53.688;10.776;2022-08-19T04:27:59;26.02;;;18.42;;
52468;SDS011;38381;53.688;10.776;2022-08-19T04:33:00;24.60;;;18.70;;
52468;SDS011;38381;53.688;10.776;2022-08-19T04:38:00;20.25;;;16.83;;
52468;SDS011;38381;53.688;10.776;2022-08-19T04:43:00;23.20;;;17.45;;
52468;SDS011;38381;53.688;10.776;2022-08-19T04:48:01;26.02;;;18.75;;
52468;SDS011;38381;53.688;10.776;2022-08-19T04:53:01;22.27;;;18.60;;
52468;SDS011;38381;53.688;10.776;2022-08-19T04:58:03;28.17;;;21.20;;
52468;SDS011;38381;53.688;10.776;2022-08-19T05:03:03;27.08;;;18.58;;
52468;SDS011;38381;53.688;10.776;2022-08-19T05:08:04;26.10;;;19.40;;
52468;SDS011;38381;53.688;10.776;2022-08-19T05:13:05;24.48;;;17.40;;
52468;SDS011;38381;53.688;10.776;2022-08-19T05:18:05;23.58;;;19.73;;
52468;SDS011;38381;53.688;10.776;2022-08-19T05:23:24;28.88;;;19.00;;
52468;SDS011;38381;53.688;10.776;2022-08-19T05:28:25;27.85;;;18.85;;
52468;SDS011;38381;53.688;10.776;2022-08-19T05:33:25;25.27;;;19.95;;
52468;SDS011;38381;53.688;10.776;2022-08-19T05:38:25;28.48;;;18.70;;
52468;SDS011;38381;53.688;10.776;2022-08-19T05:43:27;27.07;;;19.63;;
52468;SDS011;38381;53.688;10.776;2022-08-19T05:48:27;27.48;;;20.80;;
52468;SDS011;38381;53.688;10.776;2022-08-19T05:53:28;28.00;;;20.17;;
52468;SDS011;38381;53.688;10.776;2022-08-19T05:58:28;23.53;;;17.30;;
52468;SDS011;38381;53.688;10.776;2022-08-19T06:03:29;29.67;;;18.80;;
52468;SDS011;38381;53.688;10.776;2022-08-19T06:08:30;23.20;;;18.77;;
52468;SDS011;38381;53.688;10.776;2022-08-19T06:13:30;30.15;;;18.83;;
52468;SDS011;38381;53.688;10.776;2022-08-19T06:18:31;29.80;;;19.50;;
52468;SDS011;38381;53.688;10.776;2022-08-19T06:23:32;28.17;;;19.25;;
52468;SDS011;38381;53.688;10.776;2022-08-19T06:28:33;31.65;;;19.23;;
52468;SDS011;38381;53.688;10.776;2022-08-19T06:33:33;21.02;;;17.25;;
52468;SDS011;38381;53.688;10.776;2022-08-19T06:38:33;21.85;;;16.85;;
52468;SDS011;38381;53.688;10.776;2022-08-19T06:43:34;24.87;;;19.33;;
52468;SDS011;38381;53.688;10.776;2022-08-19T06:48:36;26.17;;;19.52;;
52468;SDS011;38381;53.688;10.776;2022-08-19T06:53:36;33.42;;;20.52;;
52468;SDS011;38381;53.688;10.776;2022-08-19T06:58:36;32.05;;;21.08;;
52468;SDS011;38381;53.688;10.776;2022-08-19T07:03:38;31.77;;;21.60;;
52468;SDS011;38381;53.688;10.776;2022-08-19T07:08:39;30.80;;;21.13;;
52468;SDS011;38381;53.688;10.776;2022-08-19T07:13:42;33.22;;;19.98;;
52468;SDS011;38381;53.688;10.776;2022-08-19T07:18:43;28.75;;;22.75;;
52468;SDS011;38381;53.688;10.776;2022-08-19T07:23:44;26.70;;;20.38;;
52468;SDS011;38381;53.688;10.776;2022-08-19T07:28:46;28.70;;;20.83;;
52468;SDS011;38381;53.688;10.776;2022-08-19T07:38:49;29.05;;;20.80;;
52468;SDS011;38381;53.688;10.776;2022-08-19T07:43:51;29.73;;;21.63;;
52468;SDS011;38381;53.688;10.776;2022-08-19T07:48:52;31.85;;;23.50;;
52468;SDS011;38381;53.688;10.776;2022-08-19T07:53:52;31.10;;;23.00;;
52468;SDS011;38381;53.688;10.776;2022-08-19T07:58:52;29.43;;;21.77;;
52468;SDS011;38381;53.688;10.776;2022-08-19T08:03:54;29.58;;;21.77;;
52468;SDS011;38381;53.688;10.776;2022-08-19T08:09:15;33.72;;;25.00;;
52468;SDS011;38381;53.688;10.776;2022-08-19T08:14:23;33.88;;;22.88;;
52468;SDS011;38381;53.688;10.776;2022-08-19T08:19:26;39.88;;;23.10;;
52468;SDS011;38381;53.688;10.776;2022-08-19T08:24:28;31.40;;;22.10;;
52468;SDS011;38381;53.688;10.776;2022-08-19T08:29:30;23.95;;;19.60;;
52468;SDS011;38381;53.688;10.776;2022-08-19T08:34:31;26.65;;;18.67;;
52468;SDS011;38381;53.688;10.776;2022-08-19T08:39:31;22.35;;;17.35;;
52468;SDS011;38381;53.688;10.776;2022-08-19T08:44:38;26.40;;;19.05;;
52468;SDS011;38381;53.688;10.776;2022-08-19T08:54:58;24.90;;;21.10;;
52468;SDS011;38381;53.688;10.776;2022-08-19T09:00:00;28.15;;;21.45;;
52468;SDS011;38381;53.688;10.776;2022-08-19T09:05:06;29.25;;;20.50;;
52468;SDS011;38381;53.688;10.776;2022-08-19T09:15:40;27.48;;;20.30;;
52468;SDS011;38381;53.688;10.776;2022-08-19T09:20:47;26.73;;;22.08;;
52468;SDS011;38381;53.688;10.776;2022-08-19T09:25:48;31.70;;;22.73;;
52468;SDS011;38381;53.688;10.776;2022-08-19T09:30:48;31.67;;;20.83;;
52468;SDS011;38381;53.688;10.776;2022-08-19T09:35:50;35.00;;;21.80;;
52468;SDS011;38381;53.688;10.776;2022-08-19T09:41:04;32.58;;;22.70;;
52468;SDS011;38381;53.688;10.776;2022-08-19T09:46:06;39.88;;;24.05;;
52468;SDS011;38381;53.688;10.776;2022-08-19T09:51:10;34.28;;;23.60;;
52468;SDS011;38381;53.688;10.776;2022-08-19T09:56:15;38.05;;;25.98;;
52468;SDS011;38381;53.688;10.776;2022-08-19T10:06:23;34.42;;;21.38;;
52468;SDS011;38381;53.688;10.776;2022-08-19T10:11:29;32.47;;;25.90;;
52468;SDS011;38381;53.688;10.776;2022-08-19T10:16:30;38.90;;;26.58;;
52468;SDS011;38381;53.688;10.776;2022-08-19T10:21:31;39.33;;;26.90;;
52468;SDS011;38381;53.688;10.776;2022-08-19T10:26:34;43.15;;;30.58;;
52468;SDS011;38381;53.688;10.776;2022-08-19T10:31:36;42.85;;;31.25;;
52468;SDS011;38381;53.688;10.776;2022-08-19T10:36:37;45.13;;;30.97;;
52468;SDS011;38381;53.688;10.776;2022-08-19T10:41:38;46.53;;;30.13;;
52468;SDS011;38381;53.688;10.776;2022-08-19T10:46:40;46.95;;;31.35;;
52468;SDS011;38381;53.688;10.776;2022-08-19T10:51:42;44.10;;;29.55;;
52468;SDS011;38381;53.688;10.776;2022-08-19T10:57:01;41.80;;;28.75;;
52468;SDS011;38381;53.688;10.776;2022-08-19T11:02:03;39.23;;;24.53;;
52468;SDS011;38381;53.688;10.776;2022-08-19T11:07:07;36.90;;;27.15;;
52468;SDS011;38381;53.688;10.776;2022-08-19T11:12:08;32.92;;;25.63;;
52468;SDS011;38381;53.688;10.776;2022-08-19T11:17:10;33.60;;;25.42;;
52468;SDS011;38381;53.688;10.776;2022-08-19T11:22:13;36.47;;;25.35;;
52468;SDS011;38381;53.688;10.776;2022-08-19T11:27:13;37.83;;;28.20;;
52468;SDS011;38381;53.688;10.776;2022-08-19T11:32:14;35.45;;;23.55;;
52468;SDS011;38381;53.688;10.776;2022-08-19T11:37:15;35.27;;;23.40;;
52468;SDS011;38381;53.688;10.776;2022-08-19T11:42:15;36.50;;;25.75;;
52468;SDS011;38381;53.688;10.776;2022-08-19T11:47:36;30.63;;;21.15;;
52468;SDS011;38381;53.688;10.776;2022-08-19T11:52:36;26.67;;;20.23;;
52468;SDS011;38381;53.688;10.776;2022-08-19T11:57:36;31.17;;;19.92;;
52468;SDS011;38381;53.688;10.776;2022-08-19T12:02:37;24.90;;;19.40;;
52468;SDS011;38381;53.688;10.776;2022-08-19T12:07:37;23.47;;;17.90;;
52468;SDS011;38381;53.688;10.776;2022-08-19T12:12:37;27.30;;;18.40;;
52468;SDS011;38381;53.688;10.776;2022-08-19T12:17:42;22.75;;;17.13;;
52468;SDS011;38381;53.688;10.776;2022-08-19T12:22:42;19.23;;;16.17;;
52468;SDS011;38381;53.688;10.776;2022-08-19T12:27:43;17.92;;;14.52;;
52468;SDS011;38381;53.688;10.776;2022-08-19T12:32:43;21.42;;;16.80;;
52468;SDS011;38381;53.688;10.776;2022-08-19T12:37:43;19.50;;;16.77;;
52468;SDS011;38381;53.688;10.776;2022-08-19T12:42:44;21.60;;;17.38;;
52468;SDS011;38381;53.688;10.776;2022-08-19T12:47:45;20.17;;;15.07;;
52468;SDS011;38381;53.688;10.776;2022-08-19T12:52:46;18.40;;;14.20;;
52468;SDS011;38381;53.688;10.776;2022-08-19T12:57:47;18.48;;;14.18;;
52468;SDS011;38381;53.688;10.776;2022-08-19T13:02:49;18.05;;;14.90;;
52468;SDS011;38381;53.688;10.776;2022-08-19T13:07:52;20.63;;;17.70;;
52468;SDS011;38381;53.688;10.776;2022-08-19T13:12:57;25.40;;;18.42;;
52468;SDS011;38381;53.688;10.776;2022-08-19T13:23:00;23.70;;;20.17;;
52468;SDS011;38381;53.688;10.776;2022-08-19T13:28:00;29.33;;;21.98;;
52468;SDS011;38381;53.688;10.776;2022-08-19T13:33:01;26.40;;;20.52;;
52468;SDS011;38381;53.688;10.776;2022-08-19T13:38:17;24.45;;;20.92;;
52468;SDS011;38381;53.688;10.776;2022-08-19T13:43:21;24.27;;;19.45;;
52468;SDS011;38381;53.688;10.776;2022-08-19T13:48:23;26.88;;;20.77;;
52468;SDS011;38381;53.688;10.776;2022-08-19T13:53:26;24.38;;;18.52;;
52468;SDS011;38381;53.688;10.776;2022-08-19T13:58:26;22.35;;;19.60;;
52468;SDS011;38381;53.688;10.776;2022-08-19T14:03:27;25.33;;;20.08;;
52468;SDS011;38381;53.688;10.776;2022-08-19T14:08:27;20.55;;;18.05;;
52468;SDS011;38381;53.688;10.776;2022-08-19T14:13:28;16.85;;;14.82;;
52468;SDS011;38381;53.688;10.776;2022-08-19T14:18:29;19.88;;;15.95;;
52468;SDS011;38381;53.688;10.776;2022-08-19T14:23:30;21.77;;;14.98;;
52468;SDS011;38381;53.688;10.776;2022-08-19T14:28:31;21.17;;;14.33;;
52468;SDS011;38381;53.688;10.776;2022-08-19T14:33:31;19.58;;;16.35;;
52468;SDS011;38381;53.688;10.776;2022-08-19T14:38:32;18.92;;;16.35;;
52468;SDS011;38381;53.688;10.776;2022-08-19T14:43:33;19.98;;;16.75;;
52468;SDS011;38381;53.688;10.776;2022-08-19T14:48:34;19.80;;;16.15;;
52468;SDS011;38381;53.688;10.776;2022-08-19T14:58:36;22.45;;;17.50;;
52468;SDS011;38381;53.688;10.776;2022-08-19T15:03:37;21.13;;;19.13;;
52468;SDS011;38381;53.688;10.776;2022-08-19T15:08:39;21.65;;;18.08;;
52468;SDS011;38381;53.688;10.776;2022-08-19T15:13:43;19.00;;;16.88;;
52468;SDS011;38381;53.688;10.776;2022-08-19T15:18:45;19.83;;;16.33;;
52468;SDS011;38381;53.688;10.776;2022-08-19T15:28:48;24.15;;;18.27;;
52468;SDS011;38381;53.688;10.776;2022-08-19T15:33:49;18.88;;;16.90;;
52468;SDS011;38381;53.688;10.776;2022-08-19T15:38:49;18.77;;;16.23;;
52468;SDS011;38381;53.688;10.776;2022-08-19T15:48:52;20.52;;;18.42;;
52468;SDS011;38381;53.688;10.776;2022-08-19T15:53:53;17.10;;;12.85;;
52468;SDS011;38381;53.688;10.776;2022-08-19T15:58:54;17.15;;;13.65;;
52468;SDS011;38381;53.688;10.776;2022-08-19T16:04:13;15.45;;;13.85;;
52468;SDS011;38381;53.688;10.776;2022-08-19T16:09:32;18.67;;;15.45;;
52468;SDS011;38381;53.688;10.776;2022-08-19T16:14:34;28.05;;;18.67;;
52468;SDS011;38381;53.688;10.776;2022-08-19T16:19:34;17.00;;;14.93;;
52468;SDS011;38381;53.688;10.776;2022-08-19T16:24:35;20.93;;;15.93;;
52468;SDS011;38381;53.688;10.776;2022-08-19T16:29:36;19.60;;;15.23;;
52468;SDS011;38381;53.688;10.776;2022-08-19T16:34:37;18.08;;;15.68;;
52468;SDS011;38381;53.688;10.776;2022-08-19T16:39:39;22.40;;;15.80;;
52468;SDS011;38381;53.688;10.776;2022-08-19T16:44:41;23.23;;;16.08;;
52468;SDS011;38381;53.688;10.776;2022-08-19T16:49:44;15.45;;;13.70;;
52468;SDS011;38381;53.688;10.776;2022-08-19T16:54:44;16.38;;;14.68;;
52468;SDS011;38381;53.688;10.776;2022-08-19T16:59:45;18.33;;;14.67;;
52468;SDS011;38381;53.688;10.776;2022-08-19T17:04:45;19.67;;;14.15;;
52468;SDS011;38381;53.688;10.776;2022-08-19T17:09:48;16.67;;;14.93;;
52468;SDS011;38381;53.688;10.776;2022-08-19T17:14:49;16.20;;;14.50;;
52468;SDS011;38381;53.688;10.776;2022-08-19T17:19:49;16.80;;;15.10;;
52468;SDS011;38381;53.688;10.776;2022-08-19T17:24:50;18.23;;;15.18;;
52468;SDS011;38381;53.688;10.776;2022-08-19T17:29:50;22.42;;;16.38;;
52468;SDS011;38381;53.688;10.776;2022-08-19T17:34:51;18.57;;;15.40;;
52468;SDS011;38381;53.688;10.776;2022-08-19T17:39:53;17.43;;;15.63;;
52468;SDS011;38381;53.688;10.776;2022-08-19T17:44:53;18.02;;;16.23;;
52468;SDS011;38381;53.688;10.776;2022-08-19T17:49:58;15.88;;;14.25;;
52468;SDS011;38381;53.688;10.776;2022-08-19T17:54:59;17.50;;;15.65;;
52468;SDS011;38381;53.688;10.776;2022-08-19T17:59:59;15.68;;;13.48;;
52468;SDS011;38381;53.688;10.776;2022-08-19T18:04:59;18.38;;;14.88;;
52468;SDS011;38381;53.688;10.776;2022-08-19T18:10:00;16.50;;;14.13;;
52468;SDS011;38381;53.688;10.776;2022-08-19T18:15:01;18.02;;;15.88;;
52468;SDS011;38381;53.688;10.776;2022-08-19T18:20:07;17.20;;;14.80;;
52468;SDS011;38381;53.688;10.776;2022-08-19T18:25:20;19.38;;;15.35;;
52468;SDS011;38381;53.688;10.776;2022-08-19T18:30:25;16.73;;;14.82;;
52468;SDS011;38381;53.688;10.776;2022-08-19T18:40:31;18.02;;;14.23;;
52468;SDS011;38381;53.688;10.776;2022-08-19T18:45:50;17.63;;;14.75;;
52468;SDS011;38381;53.688;10.776;2022-08-19T18:51:09;13.98;;;12.55;;
52468;SDS011;38381;53.688;10.776;2022-08-19T18:56:10;14.23;;;12.73;;
52468;SDS011;38381;53.688;10.776;2022-08-19T19:01:16;16.02;;;13.38;;
52468;SDS011;38381;53.688;10.776;2022-08-19T19:06:21;15.18;;;13.68;;
52468;SDS011;38381;53.688;10.776;2022-08-19T19:11:28;16.05;;;13.02;;
52468;SDS011;38381;53.688;10.776;2022-08-19T19:16:31;16.08;;;12.93;;
52468;SDS011;38381;53.688;10.776;2022-08-19T19:21:34;16.50;;;13.20;;
52468;SDS011;38381;53.688;10.776;2022-08-19T19:26:34;17.35;;;13.30;;
52468;SDS011;38381;53.688;10.776;2022-08-19T19:31:35;17.27;;;14.70;;
52468;SDS011;38381;53.688;10.776;2022-08-19T19:36:36;15.95;;;14.32;;
52468;SDS011;38381;53.688;10.776;2022-08-19T19:41:37;19.10;;;14.10;;
52468;SDS011;38381;53.688;10.776;2022-08-19T19:46:38;16.30;;;14.18;;
52468;SDS011;38381;53.688;10.776;2022-08-19T19:51:41;16.27;;;13.70;;
52468;SDS011;38381;53.688;10.776;2022-08-19T19:56:42;13.40;;;11.80;;
52468;SDS011;38381;53.688;10.776;2022-08-19T20:01:43;15.13;;;13.63;;
52468;SDS011;38381;53.688;10.776;2022-08-19T20:06:45;18.55;;;15.15;;
52468;SDS011;38381;53.688;10.776;2022-08-19T20:11:53;15.38;;;13.23;;
52468;SDS011;38381;53.688;10.776;2022-08-19T20:16:56;16.02;;;14.32;;
52468;SDS011;38381;53.688;10.776;2022-08-19T20:21:57;17.73;;;14.18;;
52468;SDS011;38381;53.688;10.776;2022-08-19T20:26:59;15.25;;;13.63;;
52468;SDS011;38381;53.688;10.776;2022-08-19T20:32:00;17.38;;;14.63;;
52468;SDS011;38381;53.688;10.776;2022-08-19T20:37:01;17.92;;;14.60;;
52468;SDS011;38381;53.688;10.776;2022-08-19T20:42:02;15.52;;;13.85;;
52468;SDS011;38381;53.688;10.776;2022-08-19T20:47:02;14.88;;;13.27;;
52468;SDS011;38381;53.688;10.776;2022-08-19T20:52:03;13.73;;;11.30;;
52468;SDS011;38381;53.688;10.776;2022-08-19T20:57:04;16.25;;;14.55;;
52468;SDS011;38381;53.688;10.776;2022-08-19T21:02:04;15.10;;;13.50;;
52468;SDS011;38381;53.688;10.776;2022-08-19T21:07:04;15.57;;;13.98;;
52468;SDS011;38381;53.688;10.776;2022-08-19T21:12:07;15.68;;;14.00;;
52468;SDS011;38381;53.688;10.776;2022-08-19T21:17:07;14.73;;;12.73;;
52468;SDS011;38381;53.688;10.776;2022-08-19T21:22:08;16.17;;;14.47;;
52468;SDS011;38381;53.688;10.776;2022-08-19T21:27:08;17.00;;;14.85;;
52468;SDS011;38381;53.688;10.776;2022-08-19T21:32:08;17.58;;;15.68;;
52468;SDS011;38381;53.688;10.776;2022-08-19T21:37:10;20.63;;;15.33;;
52468;SDS011;38381;53.688;10.776;2022-08-19T21:42:11;16.17;;;14.77;;
52468;SDS011;38381;53.688;10.776;2022-08-19T21:47:13;17.90;;;16.17;;
52468;SDS011;38381;53.688;10.776;2022-08-19T21:52:19;16.65;;;14.90;;
52468;SDS011;38381;53.688;10.776;2022-08-19T21:57:24;15.93;;;14.25;;
52468;SDS011;38381;53.688;10.776;2022-08-19T22:02:24;13.52;;;12.13;;
52468;SDS011;38381;53.688;10.776;2022-08-19T22:07:27;13.82;;;12.45;;
52468;SDS011;38381;53.688;10.776;2022-08-19T22:12:31;15.67;;;14.00;;
52468;SDS011;38381;53.688;10.776;2022-08-19T22:17:33;16.83;;;13.20;;
52468;SDS011;38381;53.688;10.776;2022-08-19T22:22:35;15.80;;;13.50;;
52468;SDS011;38381;53.688;10.776;2022-08-19T22:27:36;16.83;;;14.95;;
52468;SDS011;38381;53.688;10.776;2022-08-19T22:32:37;16.25;;;13.27;;
52468;SDS011;38381;53.688;10.776;2022-08-19T22:37:37;18.50;;;16.57;;
52468;SDS011;38381;53.688;10.776;2022-08-19T22:42:40;18.00;;;16.20;;
52468;SDS011;38381;53.688;10.776;2022-08-19T22:47:41;20.55;;;17.52;;
52468;SDS011;38381;53.688;10.776;2022-08-19T22:52:42;20.10;;;17.83;;
52468;SDS011;38381;53.688;10.776;2022-08-19T22:57:43;19.65;;;17.08;;
52468;SDS011;38381;53.688;10.776;2022-08-19T23:02:43;21.73;;;19.42;;
52468;SDS011;38381;53.688;10.776;2022-08-19T23:07:43;20.27;;;18.17;;
52468;SDS011;38381;53.688;10.776;2022-08-19T23:12:45;22.60;;;18.73;;
52468;SDS011;38381;53.688;10.776;2022-08-19T23:17:47;23.40;;;19.25;;
52468;SDS011;38381;53.688;10.776;2022-08-19T23:22:47;21.27;;;18.65;;
52468;SDS011;38381;53.688;10.776;2022-08-19T23:33:25;19.00;;;17.05;;
52468;SDS011;38381;53.688;10.776;2022-08-19T23:38:28;20.73;;;18.33;;
52468;SDS011;38381;53.688;10.776;2022-08-19T23:43:31;19.27;;;17.02;;
52468;SDS011;38381;53.688;10.776;2022-08-19T23:48:32;20.67;;;18.65;;
52468;SDS011;38381;53.688;10.776;2022-08-19T23:53:35;20.85;;;18.42;;
